Lake Station, Michigan
Current Conditions -  °F | °C
As of 9:39 PM on Wednesday 22 Oct 2014 (Local Time) from KMOP Reporting Station
Haze Haze  
Wind Chill: 35°   Ceiling: 700
Heat Index: 35°   Visibility: 1mi
Dew Point: 34°   Wind: 0mph
Humidity: 95%   Direction: NA
Pressure: 30.3"   Gusts: NA
Location:  43.8696°N, 85.0147°W
Report Text: KMOP 230139Z AUTO 00000KT 1SM BR VV007 02/01 A3030 RMK AO2 T00180011
Loading
Personal Weather Stations






























Interactive Weather Map
Tropical Storm Tracking
New forecast layout! Learn more

10-Day Weather Forecast

Advertisements
Track Severe Weather on mobile